Indianapolis, Indiana
Traffic Map
Current Weather Conditions
Indianapolis, Indiana
Broken Clouds
Broken Clouds
72°
Feels Like: 72°
Wind Chill: 72° Ceiling: 8000
Heat Index: 72° Visibility: 10mi
Dew Point: 58° Wind: 12mph
Humidity: 61% Direction: 150° (SSE)
Pressure: 30.03in Gusts: 0mph
Raw Report DataKIND 250454Z 15010KT 10SM SCT060 BKN080 BKN230 22/14 A3003 RMK AO2 SLP163 T02220144 402940150
Traffic Incident Summary
Active as of:
Severity:
Category:
InformationThere was an issue retrieving the traffic information for this location. Please try a different location or try again shortly.
Advertisements
Track Severe Weather on mobile